Private Wetterstation Grnau im Almtal
www.gruenau.tv

Wetterdaten: aktuell Samstag, 16.02.2019 03:05
Datum Zeit Temperatur Temp. min Temp. max Luftfeuchte Luftdruck Regen Wind Richtung Richtung Sonne ET UV Solar Taupunkt Windchill Windben
16.02.2019 03:05 -0,4 C -0,6 C -0,4 C 79 % 1032,1 hPa 0,0 l/m 9,1 km/h (2 Bft) SO 130 0 min 0,025 mm 0,0 UV-I 0 W/m -3,6 C -3,1 C 16,1 km/h (3 Bft)
16.02.2019 02:05 -0,4 C -0,4 C -0,2 C 80 % 1032,7 hPa 0,0 l/m 8,5 km/h (2 Bft) O-SO 112 0 min 0,025 mm 0,0 UV-I 0 W/m -3,4 C -2,6 C 17,7 km/h (3 Bft)
16.02.2019 01:05 -0,1 C -0,2 C 0,1 C 80 % 1033,4 hPa 0,0 l/m 6,4 km/h (2 Bft) O 87 0 min 0,025 mm 0,0 UV-I 0 W/m -3,1 C -0,1 C 16,1 km/h (3 Bft)
16.02.2019 00:05 0,1 C -0,1 C 0,2 C 80 % 1033,7 hPa 0,0 l/m 8,1 km/h (2 Bft) S-SO 152 0 min 0,025 mm 0,0 UV-I 0 W/m -2,9 C -1,6 C 16,1 km/h (3 Bft)
15.02.2019 23:05 0,2 C 0,2 C 0,6 C 80 % 1033,8 hPa 0,0 l/m 6,2 km/h (2 Bft) O-SO 118 0 min 0,025 mm 0,0 UV-I 0 W/m -2,8 C 0,2 C 12,9 km/h (3 Bft)
15.02.2019 22:05 0,8 C 0,5 C 0,8 C 80 % 1034,1 hPa 0,0 l/m 6,7 km/h (2 Bft) O-SO 107 0 min 0,025 mm 0,0 UV-I 0 W/m -2,2 C 0,5 C 12,9 km/h (3 Bft)
15.02.2019 21:05 1,1 C 1,0 C 1,1 C 80 % 1034,4 hPa 0,0 l/m 8,0 km/h (2 Bft) O 97 0 min 0,000 mm 0,0 UV-I 0 W/m -2,0 C -0,5 C 14,5 km/h (3 Bft)
15.02.2019 20:05 1,6 C 1,4 C 2,1 C 79 % 1034,7 hPa 0,0 l/m 5,5 km/h (1 Bft) SO 142 0 min 0,000 mm 0,0 UV-I 0 W/m -1,6 C 1,6 C 12,9 km/h (3 Bft)
15.02.2019 19:05 2,7 C 2,7 C 3,3 C 76 % 1034,8 hPa 0,0 l/m 4,7 km/h (1 Bft) O-SO 107 0 min 0,000 mm 0,0 UV-I 0 W/m -1,1 C 2,7 C 8,0 km/h (2 Bft)
15.02.2019 18:05 3,7 C 3,7 C 4,5 C 73 % 1035,0 hPa 0,0 l/m 1,2 km/h (1 Bft) O-SO 117 0 min 0,000 mm 0,0 UV-I 0 W/m -0,7 C 3,7 C 4,8 km/h (1 Bft)
15.02.2019 17:05 5,6 C 5,6 C 7,9 C 66 % 1034,7 hPa 0,0 l/m 2,5 km/h (1 Bft) O-SO 120 0 min 0,025 mm 0,0 UV-I 12 W/m -0,2 C 5,6 C 4,8 km/h (1 Bft)
15.02.2019 16:05 9,4 C 9,3 C 11,2 C 53 % 1034,7 hPa 0,0 l/m 1,7 km/h (1 Bft) SW 233 60 min 0,127 mm 0,0 UV-I 127 W/m 0,3 C 9,4 C 3,2 km/h (1 Bft)
15.02.2019 15:05 11,0 C 9,4 C 11,0 C 50 % 1034,9 hPa 0,0 l/m 1,7 km/h (1 Bft) S-SO 157 60 min 0,203 mm 0,9 UV-I 304 W/m 1,0 C 11,0 C 4,8 km/h (1 Bft)
15.02.2019 14:05 9,1 C 8,8 C 9,2 C 57 % 1035,4 hPa 0,0 l/m 8,5 km/h (2 Bft) NW 314 60 min 0,254 mm 1,4 UV-I 420 W/m 1,0 C 7,6 C 14,5 km/h (3 Bft)
15.02.2019 13:05 10,3 C 10,3 C 11,1 C 47 % 1035,7 hPa 0,0 l/m 3,5 km/h (1 Bft) N 353 60 min 0,229 mm 2,1 UV-I 496 W/m -0,5 C 10,3 C 8,0 km/h (2 Bft)
15.02.2019 12:05 8,2 C 7,2 C 8,7 C 56 % 1036,3 hPa 0,0 l/m 0,5 km/h (0 Bft) NW 309 60 min 0,229 mm 2,2 UV-I 512 W/m -0,0 C 8,2 C 4,8 km/h (1 Bft)
15.02.2019 11:05 6,4 C 3,7 C 6,4 C 63 % 1036,7 hPa 0,0 l/m 2,2 km/h (1 Bft) S-SO 161 60 min 0,178 mm 1,7 UV-I 476 W/m -0,1 C 6,4 C 4,8 km/h (1 Bft)
15.02.2019 10:05 1,4 C -0,5 C 1,4 C 78 % 1037,3 hPa 0,0 l/m 4,1 km/h (1 Bft) SO 142 60 min 0,102 mm 1,1 UV-I 397 W/m -2,0 C 1,4 C 9,7 km/h (2 Bft)
15.02.2019 09:05 -1,1 C -2,1 C -1,1 C 84 % 1037,6 hPa 0,0 l/m 4,2 km/h (1 Bft) S-SO 147 60 min 0,051 mm 0,0 UV-I 262 W/m -3,4 C -1,1 C 8,0 km/h (2 Bft)
15.02.2019 08:05 -2,3 C -2,4 C -2,2 C 85 % 1037,6 hPa 0,0 l/m 4,8 km/h (1 Bft) O 86 0 min 0,000 mm 0,0 UV-I 21 W/m -4,5 C -2,3 C 11,3 km/h (2 Bft)
15.02.2019 07:05 -2,3 C -2,6 C -2,0 C 85 % 1036,8 hPa 0,0 l/m 5,7 km/h (1 Bft) SO 131 0 min 0,000 mm 0,0 UV-I 0 W/m -4,5 C -2,3 C 9,7 km/h (2 Bft)
15.02.2019 06:05 -2,2 C -2,4 C -1,9 C 86 % 1037,0 hPa 0,0 l/m 6,4 km/h (2 Bft) SO 127 0 min 0,000 mm 0,0 UV-I 0 W/m -4,2 C -2,2 C 17,7 km/h (3 Bft)
15.02.2019 05:05 -2,0 C -2,4 C -1,8 C 86 % 1037,3 hPa 0,0 l/m 9,9 km/h (2 Bft) SO 142 0 min 0,000 mm 0,0 UV-I 0 W/m -4,0 C -5,6 C 16,1 km/h (3 Bft)
15.02.2019 04:05 -2,2 C -2,2 C -1,9 C 87 % 1037,4 hPa 0,0 l/m 4,7 km/h (1 Bft) S-SO 147 0 min 0,000 mm 0,0 UV-I 0 W/m -4,1 C -2,2 C 8,0 km/h (2 Bft)
15.02.2019 04:00 -2,1 C -2,1 C -1,9 C 87 % 1037,3 hPa 0,0 l/m 4,8 km/h (1 Bft) S-SO 157 0 min 0,000 mm 0,0 UV-I 0 W/m -4,0 C -2,1 C 14,5 km/h (3 Bft)
_ Min-Zeit 06:45 06:45 06:45 12:40 03:00 - 11:30 - - - - - - 06:30 02:45 11:30
Minimum _ -2,6 C -2,6 C -2,5 C 46 % 1032,1 hPa - 0,0 km/h (0 Bft) - - - - - - -4,7 C -6,6 C 0,0 km/h (0 Bft)
_ Max-Zeit 15:15 15:20 15:15 04:00 08:30 04:00 02:45 - - 08:10 14:00 12:00 13:00 14:50 15:15 13:45
Maximum _ 11,6 C 11,1 C 11,6 C 87 % 1037,8 hPa 0,0 l/m 13,7 km/h
O (3 Bft)
- - 5 min 0,254 mm 2,2 UV-I 520 W/m 1,8 C 11,4 C 24,1 km/h
NW (4 Bft)
Durchschnitt _ 2,2 C 2,0 C 2,3 C 75 % 1035,5 hPa #0,0 l/m 5,4 km/h (1 Bft) SO - #0 min. #0,100 mm 0,0 UV-I 0 W/m -2,2 C 1,5 C 11,6 km/h (2 Bft)
Rauscher Max - www.gruenau.tv